Time;durP1;ratioP1;P1;durP2;ratioP2;P2;SDS_P1;SDS_P2;PMS_P1;PMS_P2;Temp;Humidity;BMP_temperature;BMP_pressure;BME280_temperature;BME280_humidity;BME280_pressure;Samples;Min_cycle;Max_cycle;Signal;HPM_P1;HPM_P2
2022/11/30 00:01:27;;;;;;;11.82;6.85;;;12.40;73.70;;;;;;2315139;55;20955;-74
2022/11/30 00:03:54;;;;;;;12.98;7.40;;;12.40;73.70;;;;;;2314447;55;20951;-74
2022/11/30 00:06:23;;;;;;;12.43;6.72;;;12.40;73.70;;;;;;2556910;54;20983;-74
2022/11/30 00:08:56;;;;;;;9.95;5.78;;;12.40;73.80;;;;;;2314973;55;20939;-74
2022/11/30 00:11:23;;;;;;;10.25;6.30;;;12.40;73.80;;;;;;2315003;55;20999;-74
2022/11/30 00:13:50;;;;;;;12.15;6.87;;;12.40;74.10;;;;;;2477868;53;21694;-74
2022/11/30 00:16:16;;;;;;;10.85;6.60;;;12.40;74.10;;;;;;2315546;55;20931;-74
2022/11/30 00:18:44;;;;;;;12.15;6.50;;;12.40;74.20;;;;;;2315960;55;20947;-74
2022/11/30 00:21:11;;;;;;;9.93;5.97;;;12.30;74.10;;;;;;2316528;55;21826;-74
2022/11/30 00:23:39;;;;;;;12.02;6.85;;;12.30;74.10;;;;;;2557134;54;20919;-74
2022/11/30 00:26:07;;;;;;;11.75;6.70;;;12.30;74.20;;;;;;2316066;55;21326;-74
2022/11/30 00:28:34;;;;;;;11.23;6.30;;;12.30;74.30;;;;;;2316010;54;21018;-74
2022/11/30 00:31:03;;;;;;;9.70;6.20;;;12.40;74.50;;;;;;2315949;54;20951;-74
2022/11/30 00:33:33;;;;;;;11.12;6.18;;;12.40;74.50;;;;;;2316553;54;20950;-74
2022/11/30 00:36:01;;;;;;;12.43;6.97;;;12.40;74.50;;;;;;2315867;54;21067;-74
2022/11/30 00:38:30;;;;;;;11.10;5.82;;;12.40;74.50;;;;;;2318234;54;20963;-74
2022/11/30 00:40:57;;;;;;;12.50;6.55;;;12.40;74.40;;;;;;2324201;54;20952;-74
2022/11/30 00:43:23;;;;;;;10.20;6.37;;;12.50;74.40;;;;;;2316624;55;20943;-74
2022/11/30 00:45:49;;;;;;;9.48;5.53;;;12.40;74.30;;;;;;2315831;55;21295;-74
2022/11/30 00:48:16;;;;;;;10.63;6.10;;;12.40;74.30;;;;;;2315794;55;21783;-74
2022/11/30 00:50:47;;;;;;;12.98;6.85;;;12.40;74.20;;;;;;2300333;55;20968;-74
2022/11/30 00:53:13;;;;;;;10.52;5.80;;;12.40;74.20;;;;;;2450848;54;21074;-74
2022/11/30 00:55:41;;;;;;;11.63;6.40;;;12.40;74.20;;;;;;2260697;55;2817966;-74
2022/11/30 00:58:08;;;;;;;14.68;6.93;;;12.30;74.10;;;;;;2299949;55;21885;-74
2022/11/30 01:00:35;;;;;;;12.18;6.35;;;12.40;74.20;;;;;;2447947;54;21021;-74
2022/11/30 01:03:02;;;;;;;12.18;6.53;;;12.40;74.20;;;;;;2305032;55;21456;-74
2022/11/30 01:05:29;;;;;;;10.77;5.97;;;12.40;74.20;;;;;;2304121;55;21018;-74
2022/11/30 01:07:58;;;;;;;10.52;6.07;;;12.40;74.20;;;;;;2315959;55;21014;-74
2022/11/30 01:10:25;;;;;;;17.52;6.57;;;12.40;74.10;;;;;;2556535;54;20999;-74
2022/11/30 01:12:52;;;;;;;10.77;6.20;;;12.40;74.10;;;;;;2315093;55;21043;-74
2022/11/30 01:15:21;;;;;;;16.85;7.35;;;12.40;74.00;;;;;;2315030;55;22020;-74
2022/11/30 01:17:47;;;;;;;12.77;6.93;;;12.40;74.00;;;;;;2314350;55;20932;-74
2022/11/30 01:20:15;;;;;;;9.90;5.78;;;12.40;74.00;;;;;;2314567;55;21035;-74
2022/11/30 01:22:41;;;;;;;13.05;6.80;;;12.30;74.00;;;;;;2314483;55;21472;-74
2022/11/30 01:25:11;;;;;;;12.98;6.97;;;12.30;74.00;;;;;;2436058;54;20947;-74
2022/11/30 01:28:05;;;;;;;11.30;6.53;;;12.30;74.00;;;;;;2316073;55;20999;-74
2022/11/30 01:30:31;;;;;;;10.85;6.10;;;12.30;73.70;;;;;;2313807;55;21003;-74
2022/11/30 01:33:03;;;;;;;11.43;6.35;;;12.30;74.00;;;;;;2314970;55;20939;-74
2022/11/30 01:35:30;;;;;;;13.48;5.82;;;12.30;73.90;;;;;;2316533;55;21448;-74
2022/11/30 01:37:56;;;;;;;11.90;6.10;;;12.30;74.00;;;;;;2316014;55;20935;-74
2022/11/30 01:40:23;;;;;;;11.45;6.43;;;12.30;74.10;;;;;;2316445;55;21460;-73
2022/11/30 01:42:52;;;;;;;13.48;6.57;;;12.30;74.00;;;;;;2316144;55;21107;-74
2022/11/30 01:45:23;;;;;;;13.95;7.68;;;12.30;73.90;;;;;;2369007;54;20930;-74
2022/11/30 01:47:52;;;;;;;13.77;6.72;;;12.30;74.00;;;;;;2316036;55;21014;-74
2022/11/30 01:50:25;;;;;;;12.65;7.03;;;12.30;73.80;;;;;;2315644;55;21732;-74
2022/11/30 01:52:52;;;;;;;12.23;6.57;;;12.20;73.70;;;;;;2314530;55;21503;-74
2022/11/30 01:55:21;;;;;;;11.70;7.10;;;12.20;73.80;;;;;;2314954;55;20935;-74
2022/11/30 01:57:53;;;;;;;11.65;6.30;;;12.20;73.90;;;;;;2426539;54;21006;-74
2022/11/30 02:00:20;;;;;;;13.80;7.82;;;12.20;73.90;;;;;;2315482;55;20920;-74
2022/11/30 02:03:39;;;;;;;14.45;8.05;;;12.20;73.90;;;;;;2555343;54;20935;-74
2022/11/30 02:06:05;;;;;;;15.13;7.90;;;12.20;73.70;;;;;;2316342;55;21090;-74
2022/11/30 02:08:32;;;;;;;13.60;6.93;;;12.20;73.80;;;;;;2316105;56;20932;-74
2022/11/30 02:11:01;;;;;;;12.65;6.72;;;12.20;73.80;;;;;;2315315;55;20916;-74
2022/11/30 02:14:49;;;;;;;18.42;8.00;;;12.10;73.80;;;;;;2554875;54;20998;-74
2022/11/30 02:18:25;;;;;;;13.60;7.43;;;12.10;73.10;;;;;;2320504;55;20998;-73
2022/11/30 02:21:15;;;;;;;15.18;7.25;;;12.10;73.50;;;;;;2315215;55;20940;-74
2022/11/30 02:24:05;;;;;;;11.38;6.70;;;12.10;73.50;;;;;;2316042;55;20947;-74
2022/11/30 02:33:11;;;;;;;12.88;7.50;;;12.10;73.50;;;;;;2473698;54;20947;-74
2022/11/30 02:35:39;;;;;;;11.75;6.43;;;12.10;73.10;;;;;;2316126;55;20992;-75
2022/11/30 02:38:05;;;;;;;13.82;7.53;;;12.00;73.20;;;;;;2315488;55;21012;-74
2022/11/30 02:40:32;;;;;;;15.85;9.27;;;12.00;73.20;;;;;;2316047;55;21445;-74
2022/11/30 02:42:59;;;;;;;14.65;8.27;;;11.90;73.10;;;;;;2315026;55;20971;-74
2022/11/30 02:46:06;;;;;;;14.18;8.32;;;11.80;73.10;;;;;;2314939;55;20943;-73
2022/11/30 02:48:45;;;;;;;14.15;7.93;;;11.80;72.80;;;;;;2316263;55;20959;-74
2022/11/30 02:51:17;;;;;;;15.40;8.27;;;11.80;73.10;;;;;;2316012;55;21842;-74
2022/11/30 02:53:44;;;;;;;12.02;6.87;;;11.80;73.20;;;;;;2555783;54;20912;-74
2022/11/30 02:56:11;;;;;;;13.55;7.85;;;11.70;73.20;;;;;;2316475;55;21035;-73
2022/11/30 02:58:38;;;;;;;15.43;7.60;;;11.70;73.30;;;;;;2524079;54;21030;-74
2022/11/30 03:01:04;;;;;;;12.10;7.25;;;11.70;73.30;;;;;;2316694;55;20967;-74
2022/11/30 03:03:33;;;;;;;13.90;7.75;;;11.70;73.30;;;;;;2316442;55;21837;-74
2022/11/30 03:05:59;;;;;;;14.40;8.13;;;11.60;73.20;;;;;;2315983;55;21014;-73
2022/11/30 03:08:26;;;;;;;13.57;7.82;;;11.60;73.30;;;;;;2460604;54;21821;-74
2022/11/30 03:10:53;;;;;;;13.18;7.72;;;11.60;73.30;;;;;;2315913;55;20944;-74
2022/11/30 03:13:20;;;;;;;13.02;7.80;;;11.60;73.40;;;;;;2556204;54;20975;-74
2022/11/30 03:15:53;;;;;;;13.43;7.72;;;11.60;73.40;;;;;;2556051;54;21417;-74
2022/11/30 03:18:21;;;;;;;13.95;7.82;;;11.60;73.40;;;;;;2316187;55;21042;-74
2022/11/30 03:20:47;;;;;;;12.82;7.55;;;11.50;73.30;;;;;;2316045;55;20934;-74
2022/11/30 03:23:14;;;;;;;13.35;7.15;;;11.50;73.30;;;;;;2315614;55;21492;-74
2022/11/30 03:25:40;;;;;;;12.25;7.12;;;11.50;73.40;;;;;;2430488;54;21468;-74
2022/11/30 03:28:07;;;;;;;13.35;7.28;;;11.50;73.40;;;;;;2556215;54;20947;-73
2022/11/30 03:30:33;;;;;;;11.65;6.37;;;11.50;73.50;;;;;;2322089;54;20962;-74
2022/11/30 03:32:59;;;;;;;12.10;7.53;;;11.50;73.50;;;;;;2315806;55;20970;-73
2022/11/30 03:35:26;;;;;;;11.45;6.65;;;11.40;73.60;;;;;;2316429;55;20915;-74
2022/11/30 03:37:53;;;;;;;10.93;6.55;;;11.40;73.70;;;;;;2315493;55;20919;-74
2022/11/30 03:40:19;;;;;;;9.88;5.97;;;11.40;73.60;;;;;;2292201;56;21059;-74
2022/11/30 03:42:46;;;;;;;12.68;6.55;;;11.40;73.70;;;;;;2444798;54;21309;-74
2022/11/30 03:45:12;;;;;;;11.30;5.55;;;11.40;73.80;;;;;;2316190;55;20940;-74
2022/11/30 03:47:39;;;;;;;10.93;6.03;;;11.40;73.90;;;;;;2556339;54;21090;-74
2022/11/30 03:50:07;;;;;;;12.63;6.35;;;11.40;74.00;;;;;;2314567;55;21766;-74
2022/11/30 03:52:34;;;;;;;12.52;7.15;;;11.50;74.10;;;;;;2314910;55;20978;-74
2022/11/30 03:55:00;;;;;;;11.45;6.68;;;11.50;74.20;;;;;;2314463;55;20956;-74
2022/11/30 03:57:26;;;;;;;14.15;7.15;;;11.50;74.20;;;;;;2315353;55;20999;-74
2022/11/30 03:59:53;;;;;;;10.23;5.85;;;11.50;74.20;;;;;;2559513;53;20970;-74
2022/11/30 04:02:19;;;;;;;9.88;5.85;;;11.50;74.20;;;;;;2558028;53;21097;-74
2022/11/30 04:04:45;;;;;;;10.52;6.03;;;11.50;74.20;;;;;;2315751;54;21014;-74
2022/11/30 04:07:12;;;;;;;10.40;5.93;;;11.50;74.20;;;;;;2323057;54;21465;-74
2022/11/30 04:09:39;;;;;;;9.15;5.37;;;11.50;74.10;;;;;;2308346;54;20940;-74
2022/11/30 04:12:05;;;;;;;9.27;5.40;;;11.50;74.10;;;;;;2317420;55;20964;-74
2022/11/30 04:14:32;;;;;;;9.48;5.28;;;11.50;74.00;;;;;;2297181;54;21450;-74
2022/11/30 04:16:58;;;;;;;9.88;5.55;;;11.50;73.90;;;;;;2362314;53;20923;-74
2022/11/30 04:19:27;;;;;;;11.68;5.75;;;11.50;73.80;;;;;;2320404;54;21290;-74
2022/11/30 04:21:53;;;;;;;13.00;6.32;;;11.50;73.80;;;;;;2342693;54;21021;-74
2022/11/30 04:24:20;;;;;;;13.27;7.03;;;11.60;73.90;;;;;;2343396;54;20977;-74
2022/11/30 04:26:46;;;;;;;10.65;6.28;;;11.60;74.00;;;;;;2336869;54;21050;-74
2022/11/30 04:29:13;;;;;;;11.35;6.20;;;11.60;74.00;;;;;;2326561;54;20929;-74
2022/11/30 04:31:39;;;;;;;9.90;5.85;;;11.60;74.00;;;;;;2343303;54;21762;-74
2022/11/30 04:34:06;;;;;;;11.10;6.00;;;11.60;74.00;;;;;;2342970;54;20948;-74
2022/11/30 04:36:32;;;;;;;9.32;5.95;;;11.50;73.90;;;;;;2342329;54;20964;-74
2022/11/30 04:38:59;;;;;;;9.60;5.75;;;11.60;74.00;;;;;;2342694;54;20940;-74
2022/11/30 04:41:25;;;;;;;7.93;4.70;;;11.60;74.00;;;;;;2343213;54;20944;-74
2022/11/30 04:43:52;;;;;;;9.32;5.55;;;11.60;74.00;;;;;;2342270;54;20992;-74
2022/11/30 04:46:19;;;;;;;11.48;6.07;;;11.60;73.80;;;;;;2343427;54;21028;-74
2022/11/30 04:48:45;;;;;;;8.82;4.95;;;11.60;73.70;;;;;;2510689;53;21516;-74
2022/11/30 04:51:11;;;;;;;9.25;5.18;;;11.60;73.60;;;;;;2531243;53;21853;-74
2022/11/30 04:53:38;;;;;;;9.68;5.15;;;11.50;73.50;;;;;;2343005;54;21012;-74
2022/11/30 04:56:05;;;;;;;10.93;5.57;;;11.50;73.40;;;;;;2343096;54;21768;-74
2022/11/30 04:58:32;;;;;;;8.90;5.35;;;11.50;73.40;;;;;;2343003;54;20936;-74
2022/11/30 05:00:58;;;;;;;12.07;7.37;;;11.50;73.40;;;;;;2343066;54;21008;-74
2022/11/30 05:03:24;;;;;;;13.62;7.47;;;11.50;73.40;;;;;;2293298;55;21471;-74
2022/11/30 05:05:54;;;;;;;15.05;7.97;;;11.50;74.00;;;;;;2316005;55;20935;-74
2022/11/30 05:08:20;;;;;;;16.45;7.65;;;11.40;73.10;;;;;;2316522;55;21496;-74
2022/11/30 05:10:51;;;;;;;14.38;7.87;;;11.50;73.20;;;;;;2314752;55;20960;-73
2022/11/30 05:13:19;;;;;;;15.35;8.07;;;11.40;73.10;;;;;;2314781;55;21027;-74
2022/11/30 05:15:48;;;;;;;12.90;7.70;;;11.40;73.20;;;;;;2536590;54;20959;-74
2022/11/30 05:18:14;;;;;;;12.37;7.30;;;11.40;73.30;;;;;;2310670;54;20983;-74
2022/11/30 05:20:46;;;;;;;11.48;6.95;;;11.40;73.40;;;;;;2545098;54;21839;-74
2022/11/30 05:23:13;;;;;;;12.32;6.97;;;11.40;73.50;;;;;;2315804;54;21058;-74
2022/11/30 05:25:39;;;;;;;12.90;7.28;;;11.40;73.60;;;;;;2555181;54;21042;-74
2022/11/30 05:28:05;;;;;;;17.02;9.32;;;11.30;73.60;;;;;;2315011;55;20982;-74
2022/11/30 05:30:32;;;;;;;18.90;8.93;;;11.30;73.50;;;;;;2556794;54;21444;-74
2022/11/30 05:32:58;;;;;;;14.75;7.97;;;11.30;73.40;;;;;;2316148;55;20946;-74
2022/11/30 05:35:25;;;;;;;17.10;7.80;;;11.30;73.40;;;;;;2556472;53;20954;-74
2022/11/30 05:37:53;;;;;;;13.40;7.68;;;11.30;73.50;;;;;;2316552;55;20919;-74
2022/11/30 05:40:20;;;;;;;14.25;7.00;;;11.30;73.50;;;;;;2323069;54;20996;-74
2022/11/30 05:42:46;;;;;;;18.27;8.30;;;11.30;73.50;;;;;;2316786;55;20911;-74
2022/11/30 05:45:13;;;;;;;18.23;9.35;;;11.30;73.50;;;;;;2415782;53;20965;-74
2022/11/30 05:47:41;;;;;;;19.35;9.02;;;11.20;73.40;;;;;;2314811;55;21421;-74
2022/11/30 05:50:09;;;;;;;15.77;8.02;;;11.20;73.30;;;;;;2392026;54;21026;-74
2022/11/30 05:52:35;;;;;;;14.25;7.43;;;11.20;73.40;;;;;;2317220;55;20975;-74
2022/11/30 05:55:02;;;;;;;18.90;8.65;;;11.20;73.50;;;;;;2409252;54;21077;-74
2022/11/30 05:57:28;;;;;;;19.17;8.60;;;11.20;73.50;;;;;;2314908;55;21678;-74
2022/11/30 05:59:54;;;;;;;16.23;8.13;;;11.20;73.50;;;;;;2438644;54;20963;-74
2022/11/30 06:02:22;;;;;;;19.67;8.93;;;11.20;73.60;;;;;;2314487;55;21694;-74
2022/11/30 06:04:52;;;;;;;17.55;8.25;;;11.20;73.60;;;;;;2442844;54;21816;-74
2022/11/30 06:07:18;;;;;;;15.98;7.47;;;11.20;73.60;;;;;;2314943;55;21874;-74
2022/11/30 06:09:45;;;;;;;16.25;8.32;;;11.20;73.60;;;;;;2355327;54;21814;-74
2022/11/30 06:12:14;;;;;;;16.25;8.80;;;11.20;73.70;;;;;;2315798;55;20978;-74
2022/11/30 06:14:41;;;;;;;18.05;8.70;;;11.20;73.70;;;;;;2315944;55;20943;-74
2022/11/30 06:17:08;;;;;;;12.85;7.35;;;11.20;73.60;;;;;;2314283;55;21043;-74
2022/11/30 06:19:35;;;;;;;18.58;7.68;;;11.20;73.60;;;;;;2556154;54;20946;-74
2022/11/30 06:22:01;;;;;;;15.43;7.22;;;11.20;73.70;;;;;;2316196;55;20923;-74
2022/11/30 06:24:28;;;;;;;17.67;8.18;;;11.20;73.60;;;;;;2556569;54;21000;-74
2022/11/30 06:26:54;;;;;;;16.12;7.03;;;11.20;73.70;;;;;;2312619;55;20965;-74
2022/11/30 06:29:24;;;;;;;16.92;7.62;;;11.20;73.70;;;;;;2530545;54;20991;-74
2022/11/30 06:31:50;;;;;;;16.67;7.82;;;11.10;73.70;;;;;;2319196;55;21485;-74
2022/11/30 06:34:20;;;;;;;17.90;8.27;;;11.10;73.70;;;;;;2444275;54;21009;-74
2022/11/30 06:36:47;;;;;;;13.95;7.45;;;11.20;73.70;;;;;;2318416;55;20912;-74
2022/11/30 06:39:13;;;;;;;14.70;7.53;;;11.10;73.70;;;;;;2555536;54;20986;-74
2022/11/30 06:41:40;;;;;;;15.52;7.28;;;11.20;73.90;;;;;;2315580;55;21334;-74
2022/11/30 06:44:09;;;;;;;15.20;7.43;;;11.10;73.70;;;;;;2325584;54;20986;-74
2022/11/30 06:46:38;;;;;;;17.23;8.30;;;11.20;73.80;;;;;;2293726;54;20937;-74
2022/11/30 06:49:05;;;;;;;12.50;6.85;;;11.10;73.80;;;;;;2437838;53;20954;-73
2022/11/30 06:51:32;;;;;;;14.27;7.47;;;11.20;74.60;;;;;;2305219;55;21493;-74
2022/11/30 06:54:00;;;;;;;12.88;6.30;;;11.20;73.90;;;;;;2532257;53;21003;-74
2022/11/30 06:56:27;;;;;;;17.83;7.28;;;11.20;74.00;;;;;;2395706;54;21521;-74
2022/11/30 06:58:54;;;;;;;13.55;6.87;;;11.20;74.00;;;;;;2556848;54;20971;-74
2022/11/30 07:01:20;;;;;;;14.55;6.60;;;11.20;74.00;;;;;;2314873;55;21773;-74
2022/11/30 07:03:47;;;;;;;15.63;6.72;;;11.20;74.00;;;;;;2318970;54;21018;-74
2022/11/30 07:06:13;;;;;;;13.38;7.10;;;11.20;74.10;;;;;;2315296;55;21007;-74
2022/11/30 07:08:43;;;;;;;13.70;7.20;;;11.20;74.00;;;;;;2437529;54;20971;-74
2022/11/30 07:11:10;;;;;;;14.57;7.03;;;11.20;74.00;;;;;;2314921;55;20955;-74
2022/11/30 07:13:37;;;;;;;15.40;7.43;;;11.20;74.10;;;;;;2310623;55;20969;-74
2022/11/30 07:16:04;;;;;;;15.27;7.10;;;11.20;74.00;;;;;;2301879;54;21038;-74
2022/11/30 07:18:31;;;;;;;12.20;6.15;;;11.20;74.00;;;;;;2541941;54;20958;-74
2022/11/30 07:20:59;;;;;;;16.60;7.03;;;11.20;74.00;;;;;;2306039;54;20994;-74
2022/11/30 07:26:14;;;;;;;14.05;6.45;;;11.20;73.80;;;;;;2557133;54;20958;-74
2022/11/30 07:28:45;;;;;;;12.57;5.95;;;11.20;73.80;;;;;;2322552;54;20954;-74
2022/11/30 07:31:21;;;;;;;14.43;6.85;;;11.20;73.70;;;;;;2318497;54;21020;-74
2022/11/30 07:33:48;;;;;;;12.93;5.62;;;11.20;73.70;;;;;;2320317;54;20974;-74
2022/11/30 07:36:16;;;;;;;12.73;6.37;;;11.20;73.80;;;;;;2315840;55;21058;-74
2022/11/30 07:38:42;;;;;;;14.25;6.50;;;11.20;73.90;;;;;;2340556;54;20947;-74
2022/11/30 07:41:09;;;;;;;11.57;5.70;;;11.20;74.00;;;;;;2313416;55;20963;-74
2022/11/30 07:43:36;;;;;;;14.45;5.50;;;11.20;74.00;;;;;;2542144;53;20929;-74
2022/11/30 07:46:03;;;;;;;14.63;6.07;;;11.20;74.00;;;;;;2315577;54;20955;-74
2022/11/30 07:48:29;;;;;;;12.32;5.57;;;11.20;74.00;;;;;;2469843;54;20931;-74
2022/11/30 07:51:16;;;;;;;13.55;6.72;;;11.20;74.00;;;;;;2296660;55;21004;-74
2022/11/30 07:53:43;;;;;;;12.65;6.00;;;11.20;73.80;;;;;;2392190;53;21028;-74
2022/11/30 07:56:16;;;;;;;11.65;5.70;;;11.20;74.00;;;;;;2444551;54;21527;-74
2022/11/30 07:58:43;;;;;;;12.05;5.97;;;11.20;74.00;;;;;;2521651;54;20967;-74
2022/11/30 08:01:14;;;;;;;14.30;6.47;;;11.20;74.10;;;;;;2316434;55;21400;-74
2022/11/30 08:03:41;;;;;;;12.30;5.87;;;11.20;74.10;;;;;;2556931;54;20998;-74
2022/11/30 08:06:12;;;;;;;9.90;5.28;;;11.20;74.10;;;;;;2315970;55;21022;-74
2022/11/30 08:08:41;;;;;;;12.63;5.85;;;11.30;74.20;;;;;;2546683;54;20977;-74
2022/11/30 08:11:12;;;;;;;11.70;5.55;;;11.30;74.20;;;;;;2296971;55;20941;-74
2022/11/30 08:13:39;;;;;;;12.40;6.15;;;11.30;74.20;;;;;;2555397;54;20952;-74
2022/11/30 08:16:13;;;;;;;10.57;5.82;;;11.30;74.20;;;;;;2314479;55;20946;-74
2022/11/30 08:18:40;;;;;;;13.48;5.55;;;11.30;74.20;;;;;;2555027;54;20999;-74
2022/11/30 08:21:07;;;;;;;12.23;5.65;;;11.30;74.30;;;;;;2314742;55;21463;-74
2022/11/30 08:23:47;;;;;;;10.60;5.65;;;11.30;74.30;;;;;;2319115;54;21425;-74
2022/11/30 08:26:25;;;;;;;9.60;5.00;;;11.30;74.10;;;;;;2315865;55;20990;-74
2022/11/30 08:28:52;;;;;;;10.55;5.53;;;11.30;74.20;;;;;;2468094;54;21488;-74
2022/11/30 08:31:22;;;;;;;11.40;5.75;;;11.30;74.40;;;;;;2316446;55;20950;-74
2022/11/30 08:33:49;;;;;;;9.88;5.57;;;11.30;74.50;;;;;;2431817;54;20970;-74
2022/11/30 08:36:19;;;;;;;11.55;5.57;;;11.40;74.70;;;;;;2316244;55;21456;-74
2022/11/30 08:38:46;;;;;;;10.90;5.40;;;11.40;74.70;;;;;;2386119;54;20983;-74
2022/11/30 08:41:16;;;;;;;9.63;5.50;;;11.40;75.30;;;;;;2556660;54;20939;-74
2022/11/30 08:43:45;;;;;;;11.70;5.68;;;11.40;74.60;;;;;;2556740;54;20991;-74
2022/11/30 08:46:13;;;;;;;10.18;5.35;;;11.40;74.50;;;;;;2316456;55;20928;-74
2022/11/30 08:48:53;;;;;;;10.95;5.43;;;11.40;74.60;;;;;;2555547;54;20979;-74
2022/11/30 08:51:28;;;;;;;10.88;5.90;;;11.50;74.60;;;;;;2315367;55;21770;-74
2022/11/30 08:54:01;;;;;;;13.07;6.07;;;11.50;74.50;;;;;;2500516;53;20991;-74
2022/11/30 08:56:27;;;;;;;10.52;6.05;;;11.50;74.30;;;;;;2556554;54;21000;-74
2022/11/30 08:58:56;;;;;;;12.85;6.55;;;11.50;74.30;;;;;;2316360;55;21015;-74
2022/11/30 09:01:26;;;;;;;13.27;6.43;;;11.50;74.30;;;;;;2314923;55;20999;-74
2022/11/30 09:03:55;;;;;;;10.23;6.07;;;11.50;74.20;;;;;;2554240;54;21065;-74
2022/11/30 09:06:26;;;;;;;13.40;7.03;;;11.50;74.20;;;;;;2556802;54;20926;-74
2022/11/30 09:08:54;;;;;;;11.55;5.78;;;11.50;74.10;;;;;;2556334;54;21002;-74
2022/11/30 09:11:22;;;;;;;20.42;6.47;;;11.50;74.20;;;;;;2315905;55;21550;-74
2022/11/30 09:13:49;;;;;;;15.35;7.00;;;11.50;74.20;;;;;;2368474;54;21499;-75
2022/11/30 09:16:16;;;;;;;11.98;6.18;;;11.50;74.30;;;;;;2315686;56;20943;-74
2022/11/30 09:18:43;;;;;;;12.27;6.22;;;11.50;74.20;;;;;;2392088;54;21673;-74
2022/11/30 09:21:10;;;;;;;12.15;6.87;;;11.50;74.10;;;;;;2315811;55;21441;-74
2022/11/30 09:23:37;;;;;;;13.13;7.53;;;11.50;74.10;;;;;;2403475;53;20930;-74
2022/11/30 09:26:10;;;;;;;11.75;6.25;;;11.50;74.10;;;;;;2542750;54;21010;-74
2022/11/30 09:28:36;;;;;;;;;;;11.50;74.00;;;;;;2552816;54;20943;-74
2022/11/30 09:31:06;;;;;;;7.82;4.55;;;11.50;73.30;;;;;;2315927;54;20119;-74
2022/11/30 09:33:32;;;;;;;11.70;6.05;;;11.60;74.10;;;;;;2316589;55;20905;-74
2022/11/30 09:36:03;;;;;;;9.15;5.72;;;11.50;74.30;;;;;;2315988;55;20936;-74
2022/11/30 09:38:30;;;;;;;12.15;5.78;;;11.50;74.10;;;;;;2300184;55;21039;-74
2022/11/30 09:40:58;;;;;;;11.43;5.95;;;11.50;74.30;;;;;;2312777;54;21003;-74
2022/11/30 09:43:59;;;;;;;10.05;6.03;;;11.50;74.30;;;;;;2314081;55;21024;-74
2022/11/30 09:46:45;;;;;;;9.77;5.60;;;11.60;74.20;;;;;;2511279;54;20967;-74
2022/11/30 09:49:22;;;;;;;8.68;4.72;;;11.60;74.20;;;;;;2294692;56;20982;-74
2022/11/30 09:51:50;;;;;;;9.98;5.30;;;11.60;74.50;;;;;;2534313;54;20992;-76
2022/11/30 09:54:34;;;;;;;12.77;5.90;;;11.60;74.60;;;;;;2316005;54;20951;-75
2022/11/30 09:58:53;;;;;;;11.50;6.12;;;11.60;74.50;;;;;;2320829;55;20948;-78
2022/11/30 10:01:21;;;;;;;9.77;4.90;;;11.70;73.70;;;;;;2527785;54;21094;-73
2022/11/30 10:03:47;;;;;;;9.40;5.25;;;11.70;74.40;;;;;;2317616;54;21511;-75
2022/11/30 10:06:25;;;;;;;10.90;5.97;;;11.70;74.50;;;;;;2314876;55;21015;-77
2022/11/30 10:12:36;;;;;;;10.27;6.03;;;11.70;74.50;;;;;;2314646;55;21003;-76
2022/11/30 10:15:40;;;;;;;9.13;4.72;;;11.70;74.30;;;;;;2315890;54;20963;-75
2022/11/30 10:18:20;;;;;;;12.55;6.80;;;11.80;74.20;;;;;;2297945;54;21980;-73
2022/11/30 10:22:39;;;;;;;11.65;6.90;;;11.80;74.50;;;;;;2555679;54;21673;-75
2022/11/30 10:26:40;;;;;;;10.45;5.43;;;11.80;74.20;;;;;;2320291;54;20971;-75
2022/11/30 10:29:28;;;;;;;10.55;5.72;;;11.80;73.70;;;;;;2438810;54;20959;-76
2022/11/30 10:32:00;;;;;;;10.10;5.40;;;11.80;74.00;;;;;;2322049;54;20959;-73
2022/11/30 10:34:34;;;;;;;10.18;5.47;;;11.80;74.20;;;;;;2307815;55;20983;-74
2022/11/30 10:37:32;;;;;;;8.95;5.00;;;11.80;74.30;;;;;;2315561;55;20989;-75
2022/11/30 10:40:20;;;;;;;9.90;5.60;;;11.80;74.30;;;;;;2316940;55;20938;-75
2022/11/30 10:44:39;;;;;;;8.88;5.68;;;11.90;74.70;;;;;;2368911;54;21003;-73
2022/11/30 10:47:32;;;;;;;7.62;4.60;;;11.90;74.00;;;;;;2315821;55;20946;-72
2022/11/30 10:49:59;;;;;;;8.48;4.47;;;11.90;74.40;;;;;;2315682;55;20970;-75
2022/11/30 10:52:34;;;;;;;8.50;4.90;;;11.90;74.90;;;;;;2378557;54;21441;-75
2022/11/30 10:55:11;;;;;;;9.98;5.78;;;12.00;74.90;;;;;;2292185;55;20936;-75
2022/11/30 10:57:38;;;;;;;8.32;4.97;;;12.00;74.90;;;;;;2314380;55;20951;-75
2022/11/30 11:00:12;;;;;;;10.68;5.93;;;12.00;75.10;;;;;;2416040;54;20952;-76
2022/11/30 11:02:52;;;;;;;11.12;5.85;;;12.10;75.10;;;;;;2314462;55;20956;-75
2022/11/30 11:05:28;;;;;;;9.57;5.85;;;12.10;74.90;;;;;;2335640;54;20948;-75
2022/11/30 11:08:17;;;;;;;10.30;5.70;;;12.10;74.60;;;;;;2314206;55;21416;-75
2022/11/30 11:10:50;;;;;;;9.93;6.07;;;12.20;74.30;;;;;;2556552;54;20939;-75
2022/11/30 11:13:36;;;;;;;8.18;4.97;;;12.20;74.60;;;;;;2315675;54;21308;-75
2022/11/30 11:16:09;;;;;;;9.93;5.62;;;12.20;74.70;;;;;;2315963;54;21031;-74
2022/11/30 11:18:36;;;;;;;10.70;6.20;;;12.20;74.70;;;;;;2556165;54;21027;-75
2022/11/30 11:21:06;;;;;;;10.55;6.30;;;12.20;74.60;;;;;;2555580;54;20970;-75
2022/11/30 11:23:37;;;;;;;10.00;6.32;;;12.20;74.30;;;;;;2523076;54;20995;-75
2022/11/30 11:26:14;;;;;;;13.85;7.35;;;12.20;74.10;;;;;;2344298;54;20959;-75
2022/11/30 11:28:43;;;;;;;12.13;7.28;;;12.20;74.10;;;;;;2532886;54;20959;-75
2022/11/30 11:31:18;;;;;;;11.68;6.62;;;12.20;73.90;;;;;;2550602;54;21366;-75
2022/11/30 11:33:53;;;;;;;11.25;6.62;;;12.20;73.80;;;;;;2314540;55;21059;-75
2022/11/30 11:36:27;;;;;;;10.57;6.80;;;12.20;73.70;;;;;;2314542;55;20991;-75
2022/11/30 11:38:54;;;;;;;10.20;6.35;;;12.20;73.90;;;;;;2314441;55;21981;-75
2022/11/30 11:41:32;;;;;;;10.32;6.85;;;12.20;74.10;;;;;;2556471;54;20923;-75
2022/11/30 11:44:37;;;;;;;10.02;6.85;;;12.20;74.00;;;;;;2315375;55;21018;-75
2022/11/30 11:47:06;;;;;;;9.23;5.87;;;12.20;74.10;;;;;;2412676;53;20958;-74
2022/11/30 11:49:36;;;;;;;9.43;5.90;;;12.20;74.20;;;;;;2314626;55;21490;-75
2022/11/30 11:52:04;;;;;;;9.30;5.82;;;12.20;74.30;;;;;;2393657;54;21544;-75
2022/11/30 11:58:03;;;;;;;11.10;6.57;;;12.20;74.50;;;;;;2294806;54;20987;-75
2022/11/30 12:00:29;;;;;;;9.45;5.47;;;12.30;74.40;;;;;;2556644;54;21063;-75
2022/11/30 12:03:18;;;;;;;10.35;6.45;;;12.30;74.40;;;;;;2315943;55;20950;-75
2022/11/30 12:05:48;;;;;;;10.27;5.85;;;12.30;74.00;;;;;;2314880;55;20955;-75
2022/11/30 12:10:59;;;;;;;8.05;4.97;;;12.30;74.30;;;;;;2314851;55;20939;-75
2022/11/30 12:13:33;;;;;;;8.25;5.10;;;12.30;73.60;;;;;;2327067;54;21026;-75
2022/11/30 12:16:31;;;;;;;9.30;6.07;;;12.40;74.20;;;;;;2315838;55;21429;-75
2022/11/30 12:25:07;;;;;;;9.07;5.35;;;12.40;73.80;;;;;;2553019;54;20946;-76
2022/11/30 12:28:06;;;;;;;7.35;4.28;;;12.40;73.50;;;;;;2415673;54;20930;-75
2022/11/30 12:31:12;;;;;;;7.37;4.55;;;12.50;73.90;;;;;;2316220;55;21879;-74
2022/11/30 12:34:10;;;;;;;9.13;5.18;;;12.40;73.40;;;;;;2316026;54;21876;-74
2022/11/30 12:40:20;;;;;;;9.52;5.57;;;12.50;74.10;;;;;;2361167;54;21051;-75
2022/11/30 12:45:28;;;;;;;6.93;4.75;;;12.40;73.30;;;;;;2314890;55;21006;-75
2022/11/30 12:48:05;;;;;;;8.00;4.65;;;12.50;73.90;;;;;;2556203;54;20951;-74
2022/11/30 12:51:00;;;;;;;7.93;5.10;;;12.50;73.60;;;;;;2371227;54;21836;-75
2022/11/30 12:54:35;;;;;;;8.02;5.45;;;12.50;73.50;;;;;;2439149;54;21018;-74
2022/11/30 12:59:42;;;;;;;9.30;5.37;;;12.50;73.60;;;;;;2315766;55;20943;-75
2022/11/30 13:02:39;;;;;;;8.50;4.72;;;12.40;72.90;;;;;;2556258;54;20935;-75
2022/11/30 13:05:11;;;;;;;6.68;4.35;;;12.40;73.30;;;;;;2363369;54;20971;-75
2022/11/30 13:07:51;;;;;;;8.23;5.55;;;12.40;73.60;;;;;;2484789;54;21467;-75
2022/11/30 13:10:31;;;;;;;9.98;6.15;;;12.40;73.50;;;;;;2453614;54;20991;-75
2022/11/30 13:12:57;;;;;;;9.52;6.05;;;12.40;73.60;;;;;;2556308;54;21058;-74
2022/11/30 13:15:29;;;;;;;10.00;6.30;;;12.40;74.50;;;;;;2316113;54;21043;-76
2022/11/30 13:17:56;;;;;;;9.90;6.35;;;12.40;73.60;;;;;;2556251;54;20947;-75
2022/11/30 13:20:37;;;;;;;10.25;6.43;;;12.30;73.50;;;;;;2316332;54;20931;-74
2022/11/30 13:24:38;;;;;;;11.40;6.25;;;12.30;73.20;;;;;;2447318;54;20935;-74
2022/11/30 13:27:17;;;;;;;8.82;5.95;;;12.30;72.60;;;;;;2316113;54;21744;-75
2022/11/30 13:36:42;;;;;;;8.73;6.03;;;12.30;73.30;;;;;;2316105;54;20998;-74
2022/11/30 13:39:54;;;;;;;6.68;4.18;;;12.30;72.80;;;;;;2337921;54;21084;-74
2022/11/30 13:42:32;;;;;;;8.27;5.28;;;12.30;72.70;;;;;;2588163;53;21229;-75
2022/11/30 13:45:25;;;;;;;8.65;6.00;;;12.20;73.30;;;;;;2345951;53;21733;-75
2022/11/30 13:47:52;;;;;;;8.40;5.12;;;12.20;73.00;;;;;;2587441;53;21007;-74
2022/11/30 13:50:38;;;;;;;9.82;6.12;;;12.20;73.50;;;;;;2324298;54;21018;-75
2022/11/30 13:53:20;;;;;;;8.43;5.57;;;12.20;73.30;;;;;;2377593;53;20957;-75